Logan, Utah
Current Conditions -  °F | °C
As of 1:51 AM on Monday 24 Nov 2014 (Local Time) from KLGU Reporting Station
Overcast Overcast  
Wind Chill: 33°   Ceiling: 5500
Heat Index: 37°   Visibility: 10mi
Dew Point: 22°   Wind: 5mph
Humidity: 54%   Direction: 210°SSW
Pressure: 30.15"   Gusts: NA
Location:  41.74°N, 111.83°W
Report Text: KLGU 240851Z AUTO 21004KT 10SM OVC055 03/M06 A3015 RMK AO2 SLP217 60000 T00281056 56007
Loading
Personal Weather Stations






























Interactive Weather Map New forecast layout! Learn more

10-Day Weather Forecast

Advertisements
Track Severe Weather on mobile